createdAt,value
2017-08-13T01:54:34.142Z,13.10
2017-08-13T02:01:11.963Z,13.20
2017-08-13T02:04:14.895Z,13.20
2017-08-13T05:08:59.182Z,14.30
2017-08-13T05:11:26.667Z,14.30
2017-08-13T05:13:54.093Z,14.40
2017-08-13T05:16:21.530Z,14.40
2017-08-13T05:18:49.738Z,14.50
2017-08-13T05:21:17.177Z,14.50
2017-08-13T05:23:44.618Z,14.60
2017-08-13T05:26:12.822Z,14.70
2017-08-13T05:28:40.289Z,14.70
2017-08-13T05:31:07.733Z,14.70
2017-08-13T05:33:35.174Z,14.70
2017-08-13T05:36:02.615Z,14.80
2017-08-13T05:38:30.831Z,14.90
2017-08-13T05:40:58.279Z,14.90
2017-08-13T05:43:25.727Z,15.00
2017-08-13T05:45:53.170Z,15.00
2017-08-13T05:48:21.374Z,15.20
2017-08-13T05:50:48.818Z,15.20
2017-08-13T05:53:16.258Z,15.40
2017-08-13T05:55:44.522Z,15.70
2017-08-13T05:58:11.959Z,15.70
2017-08-13T06:00:39.389Z,15.90
2017-08-13T06:03:06.856Z,16.20
2017-08-13T06:05:34.286Z,16.50
2017-08-13T06:08:01.718Z,16.80
2017-08-13T06:10:29.927Z,17.50
2017-08-13T06:12:57.362Z,17.50
2017-08-13T06:15:25.579Z,18.40
2017-08-13T06:17:53.033Z,18.40
2017-08-13T06:20:20.499Z,18.70
2017-08-13T06:22:47.935Z,18.90
2017-08-13T06:25:15.366Z,18.90
2017-08-13T06:27:43.577Z,18.80
2017-08-13T06:30:11.010Z,18.80
2017-08-13T06:32:39.210Z,19.00
2017-08-13T06:35:06.647Z,18.90
2017-08-13T06:37:34.093Z,19.30
2017-08-13T06:40:02.301Z,20.10
2017-08-13T06:42:29.734Z,20.10
2017-08-13T06:44:57.948Z,20.30
2017-08-13T06:47:25.410Z,20.30
2017-08-13T06:49:52.846Z,20.50
2017-08-13T06:52:20.278Z,20.70
2017-08-13T06:54:48.481Z,21.00
2017-08-13T06:57:15.910Z,20.90
2017-08-13T06:59:44.134Z,21.80
2017-08-13T07:02:11.563Z,21.80
2017-08-13T07:04:38.986Z,21.90
2017-08-13T07:07:06.435Z,22.00
2017-08-13T07:09:33.864Z,22.30
2017-08-13T07:12:01.323Z,22.40
2017-08-13T07:14:28.754Z,22.70
2017-08-13T07:16:56.210Z,22.90
2017-08-13T07:19:23.657Z,23.00
2017-08-13T07:21:51.846Z,23.10
2017-08-13T07:24:19.287Z,23.10
2017-08-13T07:26:47.483Z,23.40
2017-08-13T07:29:14.921Z,23.40
2017-08-13T07:31:43.180Z,23.40
2017-08-13T07:34:10.614Z,23.40
2017-08-13T07:36:38.058Z,23.70
2017-08-13T07:39:05.494Z,23.90
2017-08-13T07:41:32.936Z,24.10
2017-08-13T07:44:00.362Z,24.20
2017-08-13T07:46:27.794Z,24.70
2017-08-13T07:48:55.222Z,24.60
2017-08-13T07:51:22.654Z,24.20
2017-08-13T07:53:50.866Z,24.20
2017-08-13T07:56:18.318Z,24.20
2017-08-13T07:58:45.750Z,24.10
2017-08-13T08:01:13.939Z,23.30
2017-08-13T08:03:41.370Z,23.30
2017-08-13T08:06:08.804Z,23.60
2017-08-13T08:08:36.242Z,23.80
2017-08-13T08:11:03.710Z,23.90
2017-08-13T08:13:31.146Z,24.70
2017-08-13T08:15:58.582Z,24.90
2017-08-13T08:18:26.019Z,24.90
2017-08-13T08:20:54.211Z,25.50
2017-08-13T08:23:21.642Z,25.50
2017-08-13T08:25:49.082Z,25.80
2017-08-13T08:28:16.518Z,25.70
2017-08-13T08:30:43.947Z,25.30
2017-08-13T08:33:11.371Z,24.40
2017-08-13T08:35:38.801Z,24.10
2017-08-13T08:38:06.230Z,23.80
2017-08-13T08:40:33.685Z,23.70
2017-08-13T08:43:01.110Z,23.70
2017-08-13T08:45:29.306Z,22.90
2017-08-13T08:47:56.742Z,22.90
2017-08-13T08:50:24.185Z,22.30
2017-08-13T08:52:52.425Z,21.50
2017-08-13T08:55:19.861Z,21.40
2017-08-13T08:57:47.327Z,21.20
2017-08-13T09:00:14.778Z,21.00
2017-08-13T09:02:42.245Z,20.90
2017-08-13T09:05:09.762Z,20.70
2017-08-13T09:07:37.256Z,20.80
2017-08-13T09:10:04.724Z,20.80
2017-08-13T09:12:32.166Z,20.80
2017-08-13T09:14:59.619Z,20.90
2017-08-13T09:17:27.154Z,20.90
2017-08-13T09:19:54.897Z,20.60
2017-08-13T09:22:22.376Z,20.20
2017-08-13T09:24:49.867Z,20.40
2017-08-13T09:27:17.408Z,20.50
2017-08-13T09:29:44.834Z,20.70
2017-08-13T09:32:12.330Z,20.90
2017-08-13T09:34:39.774Z,21.10
2017-08-13T09:37:07.287Z,21.30
2017-08-13T09:39:35.073Z,21.00
2017-08-13T09:42:02.542Z,20.90
2017-08-13T09:44:29.988Z,21.10
2017-08-13T09:46:57.466Z,21.20
2017-08-13T09:49:24.897Z,21.20
2017-08-13T09:51:52.323Z,21.30
2017-08-13T09:54:19.775Z,21.50
2017-08-13T09:56:47.251Z,21.70
2017-08-13T09:59:14.682Z,22.10
2017-08-13T10:01:42.119Z,22.20
2017-08-13T10:04:10.350Z,22.50
2017-08-13T10:06:37.822Z,22.40
2017-08-13T10:09:05.263Z,22.40
2017-08-13T10:11:32.699Z,22.50
2017-08-13T10:14:00.134Z,22.70
2017-08-13T10:16:27.582Z,22.90
2017-08-13T10:18:55.054Z,22.90
2017-08-13T10:21:22.457Z,22.90
2017-08-13T10:23:49.945Z,22.80
2017-08-13T10:26:17.367Z,22.90
2017-08-13T10:28:44.796Z,22.80
2017-08-13T10:31:12.226Z,23.10
2017-08-13T10:33:39.670Z,23.20
2017-08-13T10:36:07.092Z,23.50
2017-08-13T10:38:34.525Z,23.90
2017-08-13T10:41:01.987Z,24.20
2017-08-13T10:43:30.161Z,24.70
2017-08-13T10:45:57.595Z,24.70
2017-08-13T10:48:25.815Z,24.90
2017-08-13T10:50:53.242Z,24.90
2017-08-13T10:53:20.674Z,25.20
2017-08-13T10:55:48.112Z,25.60
2017-08-13T10:58:15.548Z,25.50
2017-08-13T11:00:42.971Z,25.60
2017-08-13T11:03:11.166Z,25.30
2017-08-13T11:05:38.618Z,25.30
2017-08-13T11:08:06.051Z,25.30
2017-08-13T11:10:34.246Z,25.40
2017-08-13T11:13:01.679Z,25.30
2017-08-13T11:15:29.871Z,25.10
2017-08-13T11:17:58.072Z,25.10
2017-08-13T11:20:25.494Z,25.10
2017-08-13T11:22:53.698Z,24.40
2017-08-13T11:25:21.122Z,24.40
2017-08-13T11:27:49.373Z,24.50
2017-08-13T11:30:16.815Z,24.50
2017-08-13T11:32:44.243Z,24.70
2017-08-13T11:35:11.673Z,25.10
2017-08-13T11:37:39.865Z,25.30
2017-08-13T11:40:07.319Z,25.30
2017-08-13T11:42:35.517Z,25.40
2017-08-13T11:45:03.003Z,25.30
2017-08-13T11:47:30.422Z,25.50
2017-08-13T11:49:57.850Z,25.50
2017-08-13T11:52:25.280Z,25.50
2017-08-13T11:54:52.707Z,25.30
2017-08-13T11:57:20.138Z,25.50
2017-08-13T11:59:48.355Z,25.80
2017-08-13T12:02:15.876Z,25.80
2017-08-13T12:04:44.066Z,26.00
2017-08-13T12:07:11.494Z,26.00
2017-08-13T12:09:39.689Z,26.60
2017-08-13T12:12:07.114Z,26.60
2017-08-13T12:14:34.554Z,26.70
2017-08-13T12:17:01.986Z,27.00
2017-08-13T12:19:29.441Z,27.10
2017-08-13T12:21:56.855Z,27.10
2017-08-13T12:24:25.057Z,26.80
2017-08-13T12:26:52.486Z,26.80
2017-08-13T12:29:19.914Z,26.50
2017-08-13T12:31:47.358Z,25.90
2017-08-13T12:34:14.802Z,25.30
2017-08-13T12:36:42.226Z,25.20
2017-08-13T12:39:10.427Z,24.60
2017-08-13T12:41:37.854Z,24.60
2017-08-13T12:44:06.058Z,24.60
2017-08-13T12:46:33.546Z,24.50
2017-08-13T12:49:00.979Z,24.80
2017-08-13T12:51:28.410Z,25.00
2017-08-13T12:53:56.610Z,25.60
2017-08-13T12:56:24.042Z,25.70
2017-08-13T12:58:52.246Z,25.00
2017-08-13T13:01:19.682Z,25.00
2017-08-13T13:03:47.902Z,24.50
2017-08-13T13:06:15.395Z,24.50
2017-08-13T13:08:44.317Z,24.70
2017-08-13T13:11:11.750Z,24.70
2017-08-13T13:13:39.959Z,24.40
2017-08-13T13:16:07.400Z,24.40
2017-08-13T13:18:35.311Z,24.70
2017-08-13T13:21:02.748Z,24.70
2017-08-13T13:23:30.178Z,24.40
2017-08-13T13:25:58.390Z,24.50
2017-08-13T13:28:25.836Z,24.50
2017-08-13T13:30:53.504Z,23.90
2017-08-13T13:33:20.947Z,24.20
2017-08-13T13:35:49.194Z,23.60
2017-08-13T13:38:16.618Z,23.60
2017-08-13T13:40:44.617Z,23.60
2017-08-13T13:43:12.134Z,23.70
2017-08-13T13:45:39.578Z,23.50
2017-08-13T13:48:07.802Z,23.60
2017-08-13T13:50:35.238Z,23.50
2017-08-13T13:53:02.677Z,23.50
2017-08-13T13:55:30.118Z,23.60
2017-08-13T13:57:58.328Z,23.70
2017-08-13T14:00:25.770Z,23.70
2017-08-13T14:02:53.220Z,23.80
2017-08-13T14:05:20.659Z,23.30
2017-08-13T14:07:48.114Z,23.20
2017-08-13T14:10:15.556Z,22.80
2017-08-13T14:12:43.002Z,22.80
2017-08-13T14:15:10.492Z,22.70
2017-08-13T14:17:37.929Z,22.50
2017-08-13T14:20:05.370Z,22.50
2017-08-13T14:22:32.859Z,22.50
2017-08-13T14:25:00.302Z,22.50
2017-08-13T14:27:27.750Z,22.60
2017-08-13T14:29:55.207Z,22.60
2017-08-13T14:32:22.628Z,22.60
2017-08-13T14:34:50.158Z,22.60
2017-08-13T14:37:17.682Z,22.50
2017-08-13T14:39:45.222Z,22.50
2017-08-13T14:42:12.710Z,22.40
2017-08-13T14:44:40.166Z,22.40
2017-08-13T14:47:07.710Z,22.40
2017-08-13T14:49:35.205Z,22.50
2017-08-13T14:52:02.672Z,22.80
2017-08-13T14:54:30.115Z,22.90
2017-08-13T14:56:57.556Z,23.10
2017-08-13T14:59:24.994Z,23.10
2017-08-13T15:01:52.426Z,23.10
2017-08-13T15:04:19.858Z,23.30
2017-08-13T15:06:48.062Z,22.90
2017-08-13T15:09:15.511Z,22.90
2017-08-13T15:11:43.715Z,22.90
2017-08-13T15:14:11.146Z,22.90
2017-08-13T15:16:38.612Z,23.00
2017-08-13T15:19:06.046Z,23.10
2017-08-13T15:21:34.242Z,23.10
2017-08-13T15:24:01.708Z,23.10
2017-08-13T15:26:29.186Z,23.00
2017-08-13T15:28:56.617Z,22.70
2017-08-13T15:31:24.054Z,22.70
2017-08-13T15:33:51.490Z,22.50
2017-08-13T15:36:18.940Z,22.60
2017-08-13T15:38:46.359Z,22.60
2017-08-13T15:41:13.798Z,22.60
2017-08-13T15:43:41.989Z,22.60
2017-08-13T15:46:09.421Z,22.60
2017-08-13T15:48:37.625Z,22.60
2017-08-13T15:51:05.057Z,22.60
2017-08-13T15:53:33.278Z,22.60
2017-08-13T15:56:00.710Z,22.50
2017-08-13T15:58:28.237Z,22.50
2017-08-13T16:00:55.723Z,22.30
2017-08-13T16:03:23.204Z,22.30
2017-08-13T16:05:50.684Z,22.40
2017-08-13T16:08:18.122Z,22.40
2017-08-13T16:10:45.559Z,22.40
2017-08-13T16:13:13.002Z,22.50
2017-08-13T16:15:41.363Z,22.40
2017-08-13T16:18:08.872Z,22.30
2017-08-13T16:20:36.342Z,22.20
2017-08-13T16:23:03.891Z,22.20
2017-08-13T16:25:31.363Z,22.20
2017-08-13T16:27:58.797Z,22.10
2017-08-13T16:30:26.258Z,22.00
2017-08-13T16:32:53.783Z,21.90
2017-08-13T16:35:21.344Z,21.90
2017-08-13T16:37:48.799Z,21.80
2017-08-13T16:40:16.260Z,21.80
2017-08-13T16:42:43.693Z,21.90
2017-08-13T16:45:11.164Z,21.90
2017-08-13T16:47:38.726Z,21.90
2017-08-13T16:50:06.182Z,21.90
2017-08-13T16:52:33.615Z,21.80
2017-08-13T16:55:01.161Z,21.90
2017-08-13T16:57:28.670Z,21.90
2017-08-13T16:59:56.127Z,21.90
2017-08-13T17:02:23.554Z,21.80
2017-08-13T17:04:51.000Z,21.70
2017-08-13T17:07:18.465Z,21.70
2017-08-13T17:09:45.899Z,21.70
2017-08-13T17:12:13.376Z,21.70
2017-08-13T17:14:40.822Z,21.60
2017-08-13T17:17:08.310Z,21.60
2017-08-13T17:19:36.535Z,21.50
2017-08-13T17:22:03.983Z,21.50
2017-08-13T17:24:31.440Z,21.40
2017-08-13T17:26:58.907Z,21.30
2017-08-13T17:29:26.350Z,21.30
2017-08-13T17:31:53.801Z,21.20
2017-08-13T17:34:21.336Z,21.20
2017-08-13T17:36:49.671Z,21.30
2017-08-13T17:39:17.194Z,21.30
2017-08-13T17:41:44.667Z,21.30
2017-08-13T17:44:12.123Z,21.30
2017-08-13T17:46:39.610Z,21.20
2017-08-13T17:49:07.064Z,21.10
2017-08-13T17:51:34.501Z,21.10
2017-08-13T17:54:01.983Z,20.90
2017-08-13T17:56:29.439Z,20.80
2017-08-13T17:58:56.880Z,20.80
2017-08-13T18:01:24.344Z,20.70
2017-08-13T18:03:51.808Z,20.70
2017-08-13T18:06:19.294Z,20.60
2017-08-13T18:08:46.840Z,20.50
2017-08-13T18:11:14.341Z,20.40
2017-08-13T18:13:42.593Z,20.40
2017-08-13T18:16:10.042Z,20.30
2017-08-13T18:18:38.415Z,20.30
2017-08-13T18:21:05.933Z,20.10
2017-08-13T18:23:33.453Z,20.10
2017-08-13T18:26:01.216Z,20.00
2017-08-13T18:28:28.722Z,19.80
2017-08-13T18:30:56.321Z,19.70
2017-08-13T18:33:24.083Z,19.50
2017-08-13T18:35:51.601Z,19.50
2017-08-13T18:38:19.116Z,19.30
2017-08-13T18:40:46.850Z,19.20
2017-08-13T18:43:14.422Z,19.20
2017-08-13T18:45:42.133Z,19.20
2017-08-13T18:48:21.396Z,19.00
2017-08-13T18:50:52.859Z,19.00
2017-08-13T18:53:20.649Z,18.90
2017-08-13T18:55:48.101Z,18.80
2017-08-13T18:58:15.531Z,18.70
2017-08-13T19:00:42.958Z,18.50
2017-08-13T19:03:11.186Z,18.40
2017-08-13T19:05:38.614Z,18.40
2017-08-13T19:08:06.052Z,18.30
2017-08-13T19:10:33.487Z,18.40
2017-08-13T19:13:00.922Z,18.30
2017-08-13T19:15:28.349Z,18.20
2017-08-13T19:17:55.874Z,18.20
2017-08-13T19:20:23.306Z,18.10
2017-08-13T19:22:50.742Z,18.10
2017-08-13T19:25:18.174Z,18.10
2017-08-13T19:27:45.611Z,18.00
2017-08-13T19:30:13.836Z,17.80
2017-08-13T19:32:41.266Z,17.70
2017-08-13T19:35:08.697Z,17.60
2017-08-13T19:37:36.907Z,17.40
2017-08-13T19:40:04.590Z,17.40
2017-08-13T19:42:32.167Z,17.40
2017-08-13T19:45:01.368Z,17.30
2017-08-13T19:47:33.167Z,17.20
2017-08-13T19:50:04.160Z,17.10
2017-08-13T19:52:32.159Z,17.10
2017-08-13T19:54:59.581Z,17.00
2017-08-13T19:57:27.012Z,17.00
2017-08-13T19:59:54.446Z,17.00
2017-08-13T20:02:21.878Z,17.00
2017-08-13T20:04:49.336Z,16.90
2017-08-13T20:07:16.769Z,16.90
2017-08-13T20:09:44.214Z,16.90
2017-08-13T20:12:11.698Z,16.80
2017-08-13T20:14:39.137Z,16.90
2017-08-13T20:17:06.577Z,16.80
2017-08-13T20:19:34.018Z,16.80
2017-08-13T20:22:01.450Z,16.70
2017-08-13T20:24:29.649Z,16.70
2017-08-13T20:26:57.109Z,16.70
2017-08-13T20:29:24.542Z,16.70
2017-08-13T20:31:52.747Z,16.70
2017-08-13T20:34:20.186Z,16.60
2017-08-13T20:36:48.385Z,16.60
2017-08-13T20:39:15.827Z,16.60
2017-08-13T20:41:43.270Z,16.60
2017-08-13T20:44:11.490Z,16.60
2017-08-13T20:46:38.940Z,16.50
2017-08-13T20:49:06.387Z,16.60
2017-08-13T20:51:33.823Z,16.50
2017-08-13T20:54:03.425Z,16.50
2017-08-13T20:56:44.402Z,16.50
2017-08-13T20:59:15.529Z,16.50
2017-08-13T21:01:44.260Z,16.60
2017-08-13T21:04:14.125Z,16.50
2017-08-13T21:06:42.251Z,16.50
2017-08-13T21:09:10.427Z,16.50
2017-08-13T21:11:38.240Z,16.40
2017-08-13T21:14:06.551Z,16.30
2017-08-13T21:16:35.178Z,16.30
2017-08-13T21:19:21.343Z,16.20
2017-08-13T21:21:50.698Z,16.10
2017-08-13T21:24:23.461Z,16.20
2017-08-13T21:26:52.373Z,16.10
2017-08-13T21:29:22.520Z,16.00
2017-08-13T21:32:01.070Z,15.90
2017-08-13T21:34:33.950Z,15.90
2017-08-13T21:37:06.329Z,15.90
2017-08-13T21:39:35.468Z,15.80
2017-08-13T21:42:07.588Z,15.80
2017-08-13T21:44:42.255Z,15.70
2017-08-13T21:47:31.317Z,15.60
2017-08-13T21:50:02.577Z,15.60
2017-08-13T21:52:46.242Z,15.60
2017-08-13T21:55:16.012Z,15.60
2017-08-13T21:57:59.545Z,15.60
2017-08-13T22:00:28.232Z,15.50
2017-08-13T22:02:59.481Z,15.40
2017-08-13T22:05:39.199Z,15.40
2017-08-13T22:08:07.885Z,15.30
2017-08-13T22:10:37.456Z,15.30
2017-08-13T22:13:17.081Z,15.30
2017-08-13T22:15:46.048Z,15.30
2017-08-13T22:18:14.368Z,15.20
2017-08-13T22:20:46.085Z,15.20
2017-08-13T22:23:18.254Z,15.20
2017-08-13T22:25:58.042Z,15.20
2017-08-13T22:28:29.497Z,15.10
2017-08-13T22:30:58.761Z,15.10
2017-08-13T22:33:31.281Z,15.00
2017-08-13T22:36:06.771Z,14.90
2017-08-13T22:38:38.735Z,14.90
2017-08-13T22:41:11.337Z,14.80
2017-08-13T22:43:44.076Z,14.80
2017-08-13T22:49:09.469Z,14.70
2017-08-13T22:51:36.898Z,14.70
2017-08-13T22:54:04.339Z,14.70
2017-08-13T22:56:31.782Z,14.70
2017-08-13T22:58:59.998Z,14.70
2017-08-13T23:01:27.450Z,14.70
2017-08-13T23:03:54.903Z,14.80
2017-08-13T23:06:22.343Z,14.70
2017-08-13T23:08:50.566Z,14.70
2017-08-13T23:11:18.012Z,14.70
2017-08-13T23:13:45.461Z,14.70
2017-08-13T23:16:12.903Z,14.70
2017-08-13T23:18:41.107Z,14.60
2017-08-13T23:21:08.556Z,14.50
2017-08-13T23:23:35.995Z,14.50
2017-08-13T23:26:04.206Z,14.60
2017-08-13T23:28:31.639Z,14.50
2017-08-13T23:30:59.073Z,14.50
2017-08-13T23:33:27.283Z,14.60
2017-08-13T23:42:24.868Z,14.60
2017-08-13T23:47:55.845Z,14.40
2017-08-13T23:50:35.590Z,14.40
2017-08-13T23:53:17.176Z,14.30
